Harrington, Maine
Current Conditions -  °F | °C
As of 11:35 AM on Saturday 22 Nov 2014 (Local Time) from KBHB Reporting Station
Overcast Overcast  
Wind Chill: 22°   Ceiling: 11000
Heat Index: 32°   Visibility: 10mi
Dew Point: 18°   Wind: 14mph
Humidity: 55%   Direction: 200°SSW
Pressure: 30.16"   Gusts: 20mph
Location:  44.61°N, 67.82°W
Report Text: KBHB 221635Z AUTO 20012G17KT 10SM OVC110 00/M08 A3016 RMK AO1
Loading
Personal Weather Stations






























Interactive Weather Map New forecast layout! Learn more

10-Day Weather Forecast

Advertisements
Track Severe Weather on mobile